Cusseta, Georgia
Current Conditions -  °F | °C
As of 8:44 AM on Saturday 20 Dec 2014 (Local Time) from KLSF Reporting Station
Drizzle Drizzle  
Wind Chill: 46°   Ceiling: 700
Heat Index: 46°   Visibility: 10mi
Dew Point: 46°   Wind: 1mph
Humidity: 100%   Direction: 330°NNW
Pressure: 30.18"   Gusts: NA
Location:  32.31°N, 84.77°W
Report Text: KLSF 201344Z AUTO 33001KT 10SM -DZ OVC007 08/08 A3018 RMK AO2 RAE1336DZB1307E1312B1336 CIG 006V008
Loading
Personal Weather Stations






























Interactive Weather Map New forecast layout! Learn more

10-Day Weather Forecast

Advertisements
Track Severe Weather on mobile